createdAt,value
2023-03-17T00:02:57.053Z,4.2
2023-03-17T00:08:03.156Z,4.3
2023-03-17T00:13:09.287Z,4.3
2023-03-17T00:18:15.404Z,4.3
2023-03-17T00:23:21.484Z,4.3
2023-03-17T00:28:27.538Z,4.3
2023-03-17T00:33:33.634Z,4.3
2023-03-17T00:38:39.735Z,4.3
2023-03-17T00:43:45.867Z,4.2
2023-03-17T00:48:51.941Z,4.1
2023-03-17T00:53:58.102Z,4.1
2023-03-17T00:59:03.161Z,4.1
2023-03-17T01:04:09.302Z,4.1
2023-03-17T01:09:15.343Z,4.1
2023-03-17T01:14:21.515Z,4.1
2023-03-17T01:19:27.545Z,4.1
2023-03-17T01:24:33.635Z,4.1
2023-03-17T01:29:39.784Z,4
2023-03-17T01:34:45.827Z,4
2023-03-17T01:39:51.926Z,4
2023-03-17T01:44:58.026Z,3.9
2023-03-17T01:50:04.113Z,3.9
2023-03-17T01:55:10.322Z,3.9
2023-03-17T02:00:16.343Z,4
2023-03-17T02:05:21.424Z,3.9
2023-03-17T02:10:27.611Z,3.9
2023-03-17T02:15:33.613Z,3.8
2023-03-17T02:20:39.721Z,3.7
2023-03-17T02:25:45.819Z,3.6
2023-03-17T02:30:51.915Z,3.6
2023-03-17T02:35:58.019Z,3.6
2023-03-17T02:41:04.241Z,3.7
2023-03-17T02:46:10.216Z,3.8
2023-03-17T02:51:16.298Z,3.9
2023-03-17T02:56:22.530Z,4
2023-03-17T03:01:28.509Z,3.9
2023-03-17T03:06:34.616Z,3.8
2023-03-17T03:11:39.836Z,3.8
2023-03-17T03:16:45.822Z,3.8
2023-03-17T03:21:51.933Z,3.9
2023-03-17T03:26:58.001Z,3.9
2023-03-17T03:32:04.118Z,4
2023-03-17T03:37:10.229Z,4
2023-03-17T03:42:16.409Z,4
2023-03-17T03:47:22.407Z,4.1
2023-03-17T03:52:28.550Z,4.2
2023-03-17T03:57:34.649Z,4.2
2023-03-17T04:02:40.695Z,4.1
2023-03-17T04:07:46.774Z,4
2023-03-17T04:12:52.886Z,4
2023-03-17T04:17:58.000Z,4
2023-03-17T04:23:04.099Z,4
2023-03-17T04:28:10.201Z,4
2023-03-17T04:33:16.316Z,4.1
2023-03-17T04:38:22.400Z,4.2
2023-03-17T04:43:27.491Z,4.2
2023-03-17T04:48:33.597Z,4.2
2023-03-17T04:53:39.705Z,4.3
2023-03-17T04:58:45.789Z,4.3
2023-03-17T05:03:51.885Z,4.4
2023-03-17T05:08:57.997Z,4.4
2023-03-17T05:14:04.162Z,4.5
2023-03-17T05:19:10.190Z,4.5
2023-03-17T05:24:16.374Z,4.3
2023-03-17T05:29:22.378Z,4.2
2023-03-17T05:34:28.511Z,4
2023-03-17T05:39:34.602Z,3.9
2023-03-17T05:44:40.677Z,4
2023-03-17T05:49:45.799Z,4.2
2023-03-17T05:54:51.887Z,4.4
2023-03-17T05:59:58.003Z,4.5
2023-03-17T06:05:04.069Z,4.6
2023-03-17T06:10:10.193Z,4.6
2023-03-17T06:15:16.323Z,4.7
2023-03-17T06:20:22.368Z,4.7
2023-03-17T06:25:28.595Z,4.8
2023-03-17T06:30:34.567Z,4.9
2023-03-17T06:35:40.773Z,5
2023-03-17T06:40:46.776Z,5.1
2023-03-17T06:45:52.878Z,5.2
2023-03-17T06:50:58.957Z,5.4
2023-03-17T06:56:04.068Z,5.7
2023-03-17T07:01:10.198Z,5.9
2023-03-17T07:06:16.282Z,6.1
2023-03-17T07:11:22.364Z,6.3
2023-03-17T07:16:28.453Z,6.4
2023-03-17T07:21:34.567Z,6.7
2023-03-17T07:26:40.643Z,6.8
2023-03-17T07:31:46.735Z,7
2023-03-17T07:36:52.904Z,7.1
2023-03-17T07:41:58.983Z,7.2
2023-03-17T07:47:05.062Z,7.4
2023-03-17T07:52:11.125Z,7.6
2023-03-17T07:57:17.233Z,7.7
2023-03-17T08:02:22.322Z,8
2023-03-17T08:07:28.439Z,8.3
2023-03-17T08:12:34.526Z,8.7
2023-03-17T08:17:40.649Z,9.1
2023-03-17T08:22:46.700Z,9.7
2023-03-17T08:27:52.811Z,10.3
2023-03-17T08:32:58.967Z,10.6
2023-03-17T08:38:05.001Z,11.2
2023-03-17T08:43:11.109Z,11.6
2023-03-17T08:48:17.208Z,11.6
2023-03-17T08:53:23.305Z,12.2
2023-03-17T08:58:29.412Z,12.7
2023-03-17T09:03:35.484Z,12.9
2023-03-17T09:08:40.588Z,13.1
2023-03-17T09:13:46.688Z,13.4
2023-03-17T09:18:52.780Z,13.2
2023-03-17T09:23:58.951Z,13.8
2023-03-17T09:29:04.978Z,13.7
2023-03-17T09:34:11.056Z,14.1
2023-03-17T09:39:17.142Z,14.6
2023-03-17T09:44:23.233Z,13.8
2023-03-17T09:49:29.335Z,14.7
2023-03-17T09:54:35.440Z,15.5
2023-03-17T09:59:41.517Z,15.4
2023-03-17T10:04:47.616Z,15.9
2023-03-17T10:09:53.833Z,16.1
2023-03-17T10:14:58.858Z,16.3
2023-03-17T10:20:04.901Z,17.2
2023-03-17T10:25:11.028Z,17.5
2023-03-17T10:30:17.093Z,17.7
2023-03-17T10:35:23.319Z,18.2
2023-03-17T10:40:29.327Z,15.9
2023-03-17T10:45:35.379Z,15.5
2023-03-17T10:50:41.554Z,16
2023-03-17T10:55:47.655Z,16.4
2023-03-17T11:00:53.841Z,16.5
2023-03-17T11:06:00.032Z,16.3
2023-03-17T11:11:06.058Z,15.8
2023-03-17T11:16:12.035Z,15.5
2023-03-17T11:21:17.185Z,15.4
2023-03-17T11:26:23.310Z,15.5
2023-03-17T11:31:29.400Z,15.8
2023-03-17T11:36:35.512Z,16.3
2023-03-17T11:41:41.603Z,17
2023-03-17T11:46:47.689Z,18.6
2023-03-17T11:51:53.847Z,19.3
2023-03-17T11:56:59.919Z,18.7
2023-03-17T12:02:05.972Z,18.4
2023-03-17T12:07:12.062Z,18.5
2023-03-17T12:12:18.172Z,17.9
2023-03-17T12:17:24.233Z,17.6
2023-03-17T12:22:30.339Z,17.4
2023-03-17T12:27:35.538Z,17.8
2023-03-17T12:32:41.375Z,18.4
2023-03-17T12:37:47.555Z,18
2023-03-17T12:42:53.604Z,17.4
2023-03-17T12:47:59.719Z,17
2023-03-17T12:53:05.777Z,17.3
2023-03-17T12:58:11.843Z,17
2023-03-17T13:03:18.059Z,16.9
2023-03-17T13:08:24.071Z,16.6
2023-03-17T13:13:30.121Z,16.6
2023-03-17T13:18:36.233Z,16.9
2023-03-17T13:28:48.392Z,16.7
2023-03-17T13:33:53.614Z,16.6
2023-03-17T13:38:59.606Z,16.7
2023-03-17T13:44:05.783Z,16.7
2023-03-17T13:49:11.784Z,16.7
2023-03-17T13:54:17.905Z,16.7
2023-03-17T13:59:24.001Z,16.7
2023-03-17T14:04:30.068Z,16.8
2023-03-17T14:09:36.178Z,16.7
2023-03-17T14:14:42.273Z,16.7
2023-03-17T14:19:48.478Z,16.9
2023-03-17T14:24:54.434Z,17.2
2023-03-17T14:30:00.639Z,17.3
2023-03-17T14:35:06.649Z,17.4
2023-03-17T14:40:11.751Z,17.4
2023-03-17T14:45:17.915Z,17.4
2023-03-17T14:50:23.939Z,17.3
2023-03-17T14:55:30.022Z,17.3
2023-03-17T15:00:36.143Z,17.2
2023-03-17T15:05:42.257Z,17.1
2023-03-17T15:10:48.316Z,17
2023-03-17T15:21:00.477Z,16.8
2023-03-17T15:26:06.601Z,16.6
2023-03-17T15:31:12.662Z,16.5
2023-03-17T15:36:18.897Z,16.5
2023-03-17T15:41:24.951Z,16.4
2023-03-17T15:46:30.065Z,16.4
2023-03-17T15:51:36.069Z,16.3
2023-03-17T15:56:42.163Z,16.2
2023-03-17T16:01:48.463Z,16
2023-03-17T16:06:54.419Z,15.9
2023-03-17T16:12:00.561Z,15.8
2023-03-17T16:17:06.584Z,15.7
2023-03-17T16:22:12.620Z,15.6
2023-03-17T16:27:18.818Z,15.4
2023-03-17T16:32:24.831Z,15.3
2023-03-17T16:37:30.893Z,15.3
2023-03-17T16:42:37.129Z,15.2
2023-03-17T16:47:43.080Z,15.2
2023-03-17T16:52:48.214Z,15.1
2023-03-17T16:57:54.291Z,15
2023-03-17T17:03:00.411Z,14.8
2023-03-17T17:08:06.483Z,14.7
2023-03-17T17:13:12.584Z,14.6
2023-03-17T17:18:18.761Z,14.4
2023-03-17T17:23:24.790Z,14.4
2023-03-17T17:28:31.047Z,14.4
2023-03-17T17:33:36.963Z,14.5
2023-03-17T17:38:43.144Z,14.4
2023-03-17T17:43:49.155Z,14.3
2023-03-17T17:48:55.329Z,14.3
2023-03-17T17:54:01.374Z,14.4
2023-03-17T17:59:06.523Z,14.4
2023-03-17T18:04:12.552Z,14.2
2023-03-17T18:09:18.663Z,14.3
2023-03-17T18:14:24.746Z,14.4
2023-03-17T18:19:30.850Z,14.4
2023-03-17T18:24:36.950Z,14.4
2023-03-17T18:29:43.097Z,14.3
2023-03-17T18:34:49.118Z,14.2
2023-03-17T18:39:55.238Z,14.1
2023-03-17T18:45:01.339Z,14.1
2023-03-17T18:50:07.426Z,13.9
2023-03-17T18:55:13.525Z,13.9
2023-03-17T19:00:19.624Z,13.7
2023-03-17T19:05:24.734Z,13.6
2023-03-17T19:10:30.995Z,13.4
2023-03-17T19:15:37.025Z,13.4
2023-03-17T19:20:43.068Z,13.4
2023-03-17T19:25:49.101Z,13.3
2023-03-17T19:30:55.203Z,13.3
2023-03-17T19:36:01.401Z,13.4
2023-03-17T19:41:07.531Z,13.4
2023-03-17T19:46:13.534Z,13.3
2023-03-17T19:51:19.703Z,13.3
2023-03-17T19:56:25.744Z,13.2
2023-03-17T20:01:31.796Z,13.1
2023-03-17T20:06:37.859Z,13
2023-03-17T20:11:43.056Z,12.9
2023-03-17T20:16:49.077Z,12.8
2023-03-17T20:21:55.169Z,12.7
2023-03-17T20:27:01.270Z,12.6
2023-03-17T20:32:07.387Z,12.5
2023-03-17T20:37:13.461Z,12.4
2023-03-17T20:42:19.571Z,12.2
2023-03-17T20:47:25.660Z,12.1
2023-03-17T20:52:31.765Z,12
2023-03-17T20:57:37.835Z,12
2023-03-17T21:02:43.976Z,12
2023-03-17T21:07:50.141Z,11.9
2023-03-17T21:12:56.159Z,11.8
2023-03-17T21:18:01.236Z,11.8
2023-03-17T21:23:07.377Z,11.8
2023-03-17T21:28:13.429Z,11.7
2023-03-17T21:33:19.509Z,11.7
2023-03-17T21:38:25.627Z,11.7
2023-03-17T21:43:31.724Z,11.7
2023-03-17T21:48:36.823Z,11.6
2023-03-17T21:53:42.909Z,11.6
2023-03-17T21:58:49.044Z,11.5
2023-03-17T22:03:55.199Z,11.5
2023-03-17T22:09:01.198Z,11.5
2023-03-17T22:14:07.374Z,11.4
2023-03-17T22:19:13.403Z,11.4
2023-03-17T22:24:19.487Z,11.2
2023-03-17T22:29:25.597Z,11.2
2023-03-17T22:34:31.676Z,11.1
2023-03-17T22:39:37.773Z,10.9
2023-03-17T22:44:43.888Z,10.8
2023-03-17T22:49:49.997Z,10.7
2023-03-17T22:54:55.075Z,10.6
2023-03-17T23:00:01.183Z,10.6
2023-03-17T23:05:07.269Z,10.5
2023-03-17T23:10:13.373Z,10.5
2023-03-17T23:15:19.466Z,10.4
2023-03-17T23:20:25.668Z,10.3
2023-03-17T23:25:31.669Z,10.3
2023-03-17T23:30:37.892Z,10.2
2023-03-17T23:35:43.847Z,10.1
2023-03-17T23:40:50.072Z,9.9
2023-03-17T23:45:56.020Z,9.8
2023-03-17T23:51:02.121Z,9.8
2023-03-17T23:56:08.252Z,9.8
